Time;durP1;ratioP1;P1;durP2;ratioP2;P2;SDS_P1;SDS_P2;PMS_P1;PMS_P2;Temp;Humidity;BMP_temperature;BMP_pressure;BME280_temperature;BME280_humidity;BME280_pressure;Samples;Min_cycle;Max_cycle;Signal;HPM_P1;HPM_P2
2021/05/24 00:00:27;;;;;;;10.70;5.35;;;;;;;18.35;80.08;101455.27;1713969;84;21258;-74
2021/05/24 00:02:59;;;;;;;;;;;;;;;18.39;79.62;101454.39;1716399;84;21750;-71
2021/05/24 00:05:33;;;;;;;11.43;4.87;;;;;;;18.41;79.25;101460.55;1713732;82;20310;-74
2021/05/24 00:08:07;;;;;;;7.85;4.90;;;;;;;18.43;79.02;101457.45;1708908;84;21273;-69
2021/05/24 00:10:39;;;;;;;;;;;;;;;18.42;78.76;101450.15;1710632;84;21381;-74
2021/05/24 00:13:14;;;;;;;10.68;4.95;;;;;;;18.41;78.44;101445.08;1700758;84;20200;-75
2021/05/24 00:15:53;;;;;;;13.80;4.80;;;;;;;18.41;78.19;101441.45;1748456;81;21183;-73
2021/05/24 00:18:25;;;;;;;8.33;4.40;;;;;;;18.41;77.90;101437.23;1752459;82;21845;-71
2021/05/24 00:20:59;;;;;;;14.03;4.62;;;;;;;18.40;77.92;101436.95;1752538;82;21695;-71
2021/05/24 00:23:32;;;;;;;7.35;4.80;;;;;;;18.41;77.76;101449.30;1752448;80;21842;-72
2021/05/24 00:26:05;;;;;;;9.13;5.40;;;;;;;18.43;77.68;101446.20;1756547;81;21383;-71
2021/05/24 00:28:38;;;;;;;13.15;5.28;;;;;;;18.47;77.47;101448.70;1769986;81;21440;-70
2021/05/24 00:31:11;;;;;;;16.62;4.85;;;;;;;18.48;77.32;101444.75;1769973;81;21181;-70
2021/05/24 00:33:43;;;;;;;7.03;4.85;;;;;;;18.51;77.04;101449.77;1761673;81;21206;-68
2021/05/24 00:36:16;;;;;;;11.08;4.80;;;;;;;18.54;76.87;101443.58;1691579;84;21356;-72
2021/05/24 00:38:50;;;;;;;10.80;5.50;;;;;;;18.58;76.77;101434.80;1714238;84;21368;-71
2021/05/24 00:41:22;;;;;;;10.43;5.30;;;;;;;18.62;76.52;101428.86;1702887;84;21218;-74
2021/05/24 00:43:55;;;;;;;10.68;5.25;;;;;;;18.65;76.32;101434.73;1711302;84;21354;-72
2021/05/24 00:46:27;;;;;;;12.47;5.00;;;;;;;18.66;76.04;101432.77;1702352;84;21755;-75
2021/05/24 00:49:00;;;;;;;9.53;4.67;;;;;;;18.64;75.81;101429.39;1711698;84;21203;-71
2021/05/24 00:51:33;;;;;;;9.07;4.13;;;;;;;18.63;75.61;101429.13;1702580;84;21396;-73
2021/05/24 00:54:06;;;;;;;10.30;4.65;;;;;;;18.61;75.66;101430.00;1711366;84;21736;-75
2021/05/24 00:56:39;;;;;;;7.37;4.70;;;;;;;18.57;75.88;101440.16;1768491;81;21850;-73
2021/05/24 00:59:11;;;;;;;10.45;4.40;;;;;;;18.55;76.20;101440.48;1768348;81;21199;-71
2021/05/24 01:01:44;;;;;;;6.93;4.07;;;;;;;18.56;76.49;101442.70;1768774;81;21823;-73
2021/05/24 01:04:18;;;;;;;6.40;3.75;;;;;;;18.55;76.88;101448.06;1702018;84;21396;-71
2021/05/24 01:06:51;;;;;;;6.95;4.60;;;;;;;18.53;77.30;101444.72;1712680;83;21676;-71
2021/05/24 01:09:25;;;;;;;11.48;5.40;;;;;;;18.55;77.64;101443.84;1769963;81;21332;-72
2021/05/24 01:11:57;;;;;;;8.63;4.72;;;;;;;18.59;77.87;101442.95;1769943;81;21537;-75
2021/05/24 01:14:30;;;;;;;5.50;4.20;;;;;;;18.60;78.00;101431.14;1770137;81;21332;-75
2021/05/24 01:17:03;;;;;;;6.23;4.03;;;;;;;18.59;78.31;101433.69;1770177;81;21337;-75
2021/05/24 01:19:45;;;;;;;11.40;5.12;;;;;;;18.57;78.75;101430.31;1769930;81;21724;-75
2021/05/24 01:22:21;;;;;;;8.60;5.53;;;;;;;18.56;79.09;101430.89;1769831;81;21338;-75
2021/05/24 01:24:52;;;;;;;9.48;4.35;;;;;;;18.52;79.47;101419.13;1770044;81;21839;-74
2021/05/24 01:27:25;;;;;;;12.90;4.67;;;;;;;18.53;79.88;101408.97;1770089;81;21361;-71
2021/05/24 01:29:57;;;;;;;9.35;4.83;;;;;;;18.51;80.12;101405.62;1769824;81;21322;-72
2021/05/24 01:32:30;;;;;;;8.10;5.22;;;;;;;18.49;80.38;101402.83;1769817;81;21334;-73
2021/05/24 01:35:02;;;;;;;9.00;4.92;;;;;;;18.46;80.72;101397.22;1769886;81;21186;-75
2021/05/24 01:37:35;;;;;;;9.97;5.63;;;;;;;18.44;80.82;101398.65;1770371;81;21983;-76
2021/05/24 01:40:08;;;;;;;7.08;5.78;;;;;;;18.41;81.05;101397.85;1769909;81;21203;-75
2021/05/24 01:42:40;;;;;;;;;;;;;;;18.37;81.30;101388.31;1772761;81;21820;-75
2021/05/24 01:45:14;;;;;;;7.12;5.30;;;;;;;18.38;81.72;101390.84;1769845;81;20179;-74
2021/05/24 01:47:47;;;;;;;9.70;5.25;;;;;;;18.37;81.88;101396.75;1743933;81;21183;-73
2021/05/24 01:50:20;;;;;;;7.37;4.40;;;;;;;18.34;82.08;101395.36;1769827;81;21333;-74
2021/05/24 01:52:53;;;;;;;12.95;5.70;;;;;;;18.33;82.38;101384.40;1770015;80;21163;-74
2021/05/24 01:55:26;;;;;;;12.33;6.47;;;;;;;18.30;82.75;101377.36;1769994;81;21311;-76
2021/05/24 01:57:58;;;;;;;8.30;5.72;;;;;;;18.29;83.17;101374.28;1769832;81;21194;-73
2021/05/24 02:00:31;;;;;;;14.70;5.75;;;;;;;18.28;83.33;101371.20;1768824;81;21701;-72
2021/05/24 02:03:04;;;;;;;8.75;5.12;;;;;;;18.27;83.50;101379.92;1767803;81;21328;-73
2021/05/24 02:05:37;;;;;;;7.97;4.50;;;;;;;18.26;83.61;101375.44;1768027;81;21654;-70
2021/05/24 02:08:10;;;;;;;8.80;5.60;;;;;;;18.25;83.73;101377.98;1767968;81;21684;-71
2021/05/24 02:10:43;;;;;;;9.53;5.57;;;;;;;18.26;83.93;101376.84;1767770;81;21321;-73
2021/05/24 02:13:15;;;;;;;10.63;5.70;;;;;;;18.26;83.99;101374.03;1767867;81;21606;-72
2021/05/24 02:15:49;;;;;;;5.20;4.53;;;;;;;18.28;84.02;101383.85;1767752;81;21187;-72
2021/05/24 02:18:22;;;;;;;;;;;;;;;18.30;84.09;101387.78;1770323;81;21823;-73
2021/05/24 02:20:55;;;;;;;7.60;5.65;;;;;;;18.32;84.12;101379.36;1767633;81;20612;-72
2021/05/24 02:23:27;;;;;;;12.90;5.53;;;;;;;18.31;84.05;101386.68;1767710;81;21415;-69
2021/05/24 02:26:00;;;;;;;10.25;5.83;;;;;;;18.29;83.99;101379.08;1767707;81;21214;-70
2021/05/24 02:28:33;;;;;;;10.03;5.45;;;;;;;18.27;83.94;101375.15;1767898;81;21332;-74
2021/05/24 02:31:05;;;;;;;13.22;6.97;;;;;;;18.28;83.93;101380.22;1766049;81;21346;-74
2021/05/24 02:33:38;;;;;;;6.37;5.15;;;;;;;18.29;83.83;101387.52;1754081;81;21842;-67
2021/05/24 02:36:11;;;;;;;9.03;5.13;;;;;;;18.29;83.75;101401.58;1767948;81;21387;-73
2021/05/24 02:38:45;;;;;;;7.00;4.53;;;;;;;18.26;83.53;101407.77;1767931;81;21170;-72
2021/05/24 02:41:18;;;;;;;10.40;5.05;;;;;;;18.22;83.48;101408.11;1767523;81;21341;-69
2021/05/24 02:43:50;;;;;;;10.13;5.85;;;;;;;18.19;83.40;101403.91;1767789;81;21388;-71
2021/05/24 02:46:23;;;;;;;8.40;6.08;;;;;;;18.17;83.32;101398.30;1765651;81;21808;-69
2021/05/24 02:48:56;;;;;;;7.25;5.05;;;;;;;18.14;83.27;101397.47;1759514;81;21389;-68
2021/05/24 02:51:28;;;;;;;7.40;4.67;;;;;;;18.12;83.26;101416.06;1754455;81;21376;-71
2021/05/24 02:54:02;;;;;;;10.17;5.67;;;;;;;18.16;83.26;101423.34;1765590;81;21349;-70
2021/05/24 02:56:36;;;;;;;15.48;5.28;;;;;;;18.17;83.09;101420.20;1766031;81;21329;-70
2021/05/24 02:59:09;;;;;;;7.65;4.58;;;;;;;18.19;82.96;101433.98;1767690;81;21357;-69
2021/05/24 03:01:42;;;;;;;15.93;5.85;;;;;;;18.22;82.83;101438.45;1765359;81;22044;-71
2021/05/24 03:04:15;;;;;;;15.48;7.17;;;;;;;18.23;82.70;101444.93;1760634;81;21408;-69
2021/05/24 03:06:48;;;;;;;12.93;7.20;;;;;;;18.25;82.62;101449.69;1698727;84;21258;-69
2021/05/24 03:09:21;;;;;;;21.90;7.20;;;;;;;18.26;82.62;101455.02;1684591;84;21231;-70
2021/05/24 03:11:53;;;;;;;11.57;5.65;;;;;;;18.26;82.68;101452.21;1739497;82;21182;-74
2021/05/24 03:14:29;;;;;;;13.75;5.62;;;;;;;18.28;82.59;101465.40;1739782;82;21194;-70
2021/05/24 03:17:02;;;;;;;7.45;4.75;;;;;;;18.29;82.54;101454.42;1739432;82;21767;-73
2021/05/24 03:19:35;;;;;;;27.52;5.22;;;;;;;18.30;82.51;101453.87;1739552;82;21210;-72
2021/05/24 03:22:10;;;;;;;7.53;4.25;;;;;;;18.29;82.49;101447.39;1739736;82;21195;-71
2021/05/24 03:24:43;;;;;;;11.55;5.12;;;;;;;18.31;82.44;101434.48;1739320;82;21758;-71
2021/05/24 03:27:15;;;;;;;9.83;4.58;;;;;;;18.33;82.35;101448.53;1739834;81;21285;-71
2021/05/24 03:29:48;;;;;;;9.28;5.35;;;;;;;18.34;82.36;101448.80;1734396;81;21175;-74
2021/05/24 03:32:21;;;;;;;9.35;5.10;;;;;;;18.37;82.47;101448.23;1733759;83;21416;-70
2021/05/24 03:34:53;;;;;;;12.20;4.15;;;;;;;18.42;82.40;101443.94;1765468;81;21384;-72
2021/05/24 03:37:27;;;;;;;12.15;4.17;;;;;;;18.46;82.31;101445.05;1770136;81;21232;-72
2021/05/24 03:40:00;;;;;;;8.13;4.58;;;;;;;18.52;82.32;101455.70;1768951;81;21284;-72
2021/05/24 03:42:34;;;;;;;11.15;5.55;;;;;;;18.60;82.08;101453.06;1762683;81;21242;-70
2021/05/24 03:45:13;;;;;;;8.00;5.10;;;;;;;18.67;81.77;101455.55;1702180;84;21188;-69
2021/05/24 03:47:47;;;;;;;9.95;4.22;;;;;;;18.70;81.48;101464.23;1711201;84;21341;-72
2021/05/24 03:50:20;;;;;;;10.40;5.60;;;;;;;18.76;81.39;101456.02;1767642;81;21744;-73
2021/05/24 03:52:54;;;;;;;8.73;4.58;;;;;;;18.80;81.42;101447.27;1697984;84;21266;-73
2021/05/24 03:55:27;;;;;;;11.60;5.75;;;;;;;18.84;81.05;101439.89;1733375;83;21293;-72
2021/05/24 03:58:01;;;;;;;15.07;7.13;;;;;;;18.87;80.93;101425.23;1723090;82;21214;-73
2021/05/24 04:00:34;;;;;;;11.25;6.20;;;;;;;18.93;81.99;101431.64;1727666;83;21917;-73
2021/05/24 04:03:07;;;;;;;11.33;4.67;;;;;;;19.10;81.72;101468.08;1703776;84;21218;-72
2021/05/24 04:05:42;;;;;;;16.73;7.37;;;;;;;19.16;80.87;101464.62;1712428;83;21238;-74
2021/05/24 04:08:15;;;;;;;29.97;15.67;;;;;;;19.13;80.14;101487.17;1705979;83;21245;-74
2021/05/24 04:10:57;;;;;;;14.93;6.37;;;;;;;19.12;80.23;101456.48;1727418;83;21207;-77
2021/05/24 04:13:22;;;;;;;17.00;11.03;;;;;;;19.12;80.30;101460.70;1719048;82;21321;-75
2021/05/24 04:15:57;;;;;;;11.35;6.80;;;;;;;19.09;80.27;101439.62;1725257;82;21259;-75
2021/05/24 04:18:34;;;;;;;9.53;6.45;;;;;;;19.04;80.31;101466.45;1703849;84;21369;-71
2021/05/24 04:21:07;;;;;;;11.50;5.03;;;;;;;19.01;80.56;101483.92;1715830;83;21693;-75
2021/05/24 04:23:39;;;;;;;11.33;5.78;;;;;;;19.00;80.71;101479.43;1690089;84;21211;-73
2021/05/24 04:26:14;;;;;;;13.15;8.05;;;;;;;19.02;80.83;101480.55;1685618;84;21352;-72
2021/05/24 04:28:52;;;;;;;11.93;6.85;;;;;;;19.04;81.13;101485.30;1684373;85;21829;-75
2021/05/24 04:31:25;;;;;;;11.33;6.65;;;;;;;19.10;81.33;101489.75;1765197;81;21392;-74
2021/05/24 04:33:57;;;;;;;61.53;31.42;;;;;;;19.14;81.08;101517.01;1765283;81;21822;-71
2021/05/24 04:36:30;;;;;;;23.62;12.55;;;;;;;19.16;81.53;101523.76;1765590;81;21383;-73
2021/05/24 04:39:05;;;;;;;36.03;18.07;;;;;;;19.25;81.49;101531.85;1756454;81;21447;-70
2021/05/24 04:41:39;;;;;;;17.23;8.10;;;;;;;19.25;81.14;101540.30;1760382;80;21720;-75
2021/05/24 04:44:18;;;;;;;15.98;8.88;;;;;;;19.25;81.05;101543.11;1758003;81;21305;-72
2021/05/24 04:46:48;;;;;;;24.45;9.80;;;;;;;19.23;80.95;101538.36;1754752;81;21329;-72
2021/05/24 04:49:21;;;;;;;17.40;9.18;;;;;;;19.28;81.19;101541.13;1672232;85;21217;-69
2021/05/24 04:51:56;;;;;;;17.90;9.30;;;;;;;19.27;80.85;101547.91;1672281;85;21285;-76
2021/05/24 04:54:28;;;;;;;20.50;9.23;;;;;;;19.22;80.85;101560.62;1619579;88;21360;-73
2021/05/24 04:57:01;;;;;;;20.57;8.90;;;;;;;19.17;80.86;101566.27;1632407;87;21399;-69
2021/05/24 04:59:34;;;;;;;15.88;7.78;;;;;;;19.11;80.67;101558.45;1632811;87;21245;-74
2021/05/24 05:02:07;;;;;;;13.48;6.53;;;;;;;19.09;80.47;101568.32;1645878;87;21269;-73
2021/05/24 05:04:39;;;;;;;17.87;5.00;;;;;;;19.02;80.47;101564.42;1638563;87;21261;-70
2021/05/24 05:07:12;;;;;;;11.97;4.97;;;;;;;18.94;80.53;101559.99;1662222;83;21878;-71
2021/05/24 05:09:45;;;;;;;;;;;;;;;18.89;80.76;101561.47;1718502;83;21391;-70
2021/05/24 05:12:17;;;;;;;6.92;3.52;;;;;;;18.84;81.31;101555.87;1714689;83;20534;-67
2021/05/24 05:14:50;;;;;;;;;;;;;;;18.81;81.63;101583.19;1713749;83;21391;-73
2021/05/24 05:17:23;;;;;;;8.93;5.30;;;;;;;18.78;81.74;101621.78;1707796;82;20190;-74
2021/05/24 05:19:57;;;;;;;10.53;4.53;;;;;;;18.70;82.05;101610.57;1712123;83;21209;-70
2021/05/24 05:22:31;;;;;;;6.22;3.95;;;;;;;18.64;82.37;101624.95;1707434;83;21214;-74
2021/05/24 05:25:04;;;;;;;8.95;4.15;;;;;;;18.57;82.87;101617.41;1695441;83;21379;-73
2021/05/24 05:27:36;;;;;;;15.00;4.80;;;;;;;18.52;83.44;101604.80;1717779;83;21356;-74
2021/05/24 05:30:10;;;;;;;8.83;4.42;;;;;;;18.47;83.87;101578.92;1724175;83;21805;-72
2021/05/24 05:32:42;;;;;;;5.58;4.20;;;;;;;18.46;84.28;101577.25;1724189;82;21342;-73
2021/05/24 05:35:16;;;;;;;7.35;3.60;;;;;;;18.50;84.55;101583.13;1724499;83;21419;-77
2021/05/24 05:37:52;;;;;;;5.43;3.90;;;;;;;18.56;84.71;101584.23;1724431;83;21344;-78
2021/05/24 05:40:25;;;;;;;9.08;4.25;;;;;;;18.66;84.76;101583.31;1705425;83;21384;-76
2021/05/24 05:42:57;;;;;;;7.78;4.65;;;;;;;18.77;84.69;101580.13;1696170;83;21376;-76
2021/05/24 05:45:30;;;;;;;7.97;4.60;;;;;;;18.86;84.49;101572.75;1720613;83;21432;-73
2021/05/24 05:48:03;;;;;;;6.87;4.20;;;;;;;18.90;84.09;101579.45;1717365;82;21365;-71
2021/05/24 05:50:35;;;;;;;11.78;5.45;;;;;;;18.95;84.35;101582.81;1707269;83;21929;-72
2021/05/24 05:53:08;;;;;;;7.73;5.20;;;;;;;18.97;84.78;101585.58;1694855;84;21257;-75
2021/05/24 05:55:42;;;;;;;9.65;6.08;;;;;;;19.06;84.90;101595.65;1695605;84;21806;-77
2021/05/24 05:58:15;;;;;;;23.50;14.93;;;;;;;19.16;84.93;101600.65;1695301;84;21274;-76
2021/05/24 06:00:47;;;;;;;11.68;7.40;;;;;;;19.28;84.60;101589.87;1695575;84;21810;-73
2021/05/24 06:03:20;;;;;;;12.40;8.28;;;;;;;19.50;85.09;101586.55;1695529;84;21344;-75
2021/05/24 06:05:53;;;;;;;11.90;8.55;;;;;;;19.78;85.12;101582.27;1700667;84;21854;-75
2021/05/24 06:08:25;;;;;;;12.33;6.83;;;;;;;20.04;84.34;101578.55;1702012;84;21393;-76
2021/05/24 06:10:58;;;;;;;7.75;4.83;;;;;;;20.32;83.22;101580.48;1702184;84;21763;-74
2021/05/24 06:13:31;;;;;;;17.90;5.12;;;;;;;20.53;82.38;101588.91;1702202;84;21850;-75
2021/05/24 06:16:03;;;;;;;15.27;5.20;;;;;;;20.69;81.50;101575.69;1702140;84;21203;-72
2021/05/24 06:18:36;;;;;;;9.38;4.05;;;;;;;20.82;79.99;101575.47;1701906;84;22285;-76
2021/05/24 06:21:08;;;;;;;9.95;4.55;;;;;;;20.86;78.85;101590.08;1702034;84;21354;-76
2021/05/24 06:23:45;;;;;;;9.15;3.85;;;;;;;20.88;77.87;101592.63;1702187;84;21856;-72
2021/05/24 06:26:15;;;;;;;6.33;3.62;;;;;;;20.94;76.99;101595.64;1698970;84;21257;-74
2021/05/24 06:28:48;;;;;;;12.03;7.12;;;;;;;20.98;76.11;101598.12;1714361;83;21833;-76
2021/05/24 06:31:21;;;;;;;9.13;4.40;;;;;;;20.98;75.79;101602.37;1721670;83;21884;-74
2021/05/24 06:33:53;;;;;;;9.65;3.30;;;;;;;20.93;75.34;101617.42;1752603;81;21239;-71
2021/05/24 06:36:27;;;;;;;6.33;3.27;;;;;;;20.94;74.64;101620.50;1767231;81;21763;-72
2021/05/24 06:39:02;;;;;;;5.15;3.42;;;;;;;21.04;75.12;101620.91;1750921;81;21856;-73
2021/05/24 06:41:38;;;;;;;7.47;4.22;;;;;;;21.18;75.56;101637.34;1766974;81;21492;-72
2021/05/24 06:44:10;;;;;;;7.50;3.45;;;;;;;21.32;75.30;101642.45;1766978;81;21175;-74
2021/05/24 06:46:42;;;;;;;9.60;3.17;;;;;;;21.54;75.30;101630.77;1763606;81;21214;-73
2021/05/24 06:49:15;;;;;;;5.17;2.90;;;;;;;21.96;75.18;101642.44;1756128;81;21438;-72
2021/05/24 06:51:49;;;;;;;6.97;2.30;;;;;;;22.52;73.48;101648.64;1756603;81;21393;-73
2021/05/24 06:54:22;;;;;;;7.42;2.22;;;;;;;23.20;69.40;101643.66;1758577;81;21240;-75
2021/05/24 06:56:55;;;;;;;7.10;2.00;;;;;;;23.95;66.17;101648.79;1751450;81;21180;-75
2021/05/24 06:59:27;;;;;;;4.77;1.30;;;;;;;24.70;63.71;101656.52;1757444;81;21368;-76
2021/05/24 07:02:01;;;;;;;2.08;1.37;;;;;;;25.38;61.45;101666.54;1763693;81;21247;-72
2021/05/24 07:04:34;;;;;;;2.40;1.42;;;;;;;25.95;59.54;101656.00;1764462;81;21317;-71
2021/05/24 07:07:07;;;;;;;1.50;1.12;;;;;;;26.45;57.97;101663.26;1764351;81;21187;-72
2021/05/24 07:09:40;;;;;;;3.50;1.20;;;;;;;26.76;55.51;101678.03;1767371;81;22951;-72
2021/05/24 07:12:13;;;;;;;6.05;1.07;;;;;;;26.88;54.45;101688.11;1769788;81;21321;-69
2021/05/24 07:14:50;;;;;;;2.72;1.07;;;;;;;26.90;54.33;101693.71;1764972;81;21210;-69
2021/05/24 07:17:20;;;;;;;6.08;1.00;;;;;;;27.07;53.77;101702.73;1770282;81;21384;-69
2021/05/24 07:19:53;;;;;;;4.97;1.15;;;;;;;27.28;52.54;101712.16;1764267;81;21179;-70
2021/05/24 07:22:27;;;;;;;3.90;0.82;;;;;;;27.40;49.84;101715.33;1768378;81;21328;-71
2021/05/24 07:25:07;;;;;;;8.70;0.80;;;;;;;27.39;49.49;101716.52;1762528;81;21249;-73
2021/05/24 07:27:40;;;;;;;1.62;0.85;;;;;;;27.28;48.13;101733.56;1766871;81;21439;-71
2021/05/24 07:30:13;;;;;;;7.17;1.10;;;;;;;27.21;49.09;101731.86;1767865;81;21372;-71
2021/05/24 07:32:46;;;;;;;5.17;0.82;;;;;;;27.23;47.62;101740.90;1762331;81;21909;-68
2021/05/24 07:35:19;;;;;;;8.18;1.45;;;;;;;27.14;48.17;101743.20;1770428;81;21195;-71
2021/05/24 07:41:25;;;;;;;7.67;3.17;;;;;;;26.69;48.24;101761.84;1767240;80;21340;-67
2021/05/24 07:43:58;;;;;;;4.55;1.87;;;;;;;26.29;50.92;101767.57;1769797;81;21822;-68
2021/05/24 07:46:30;;;;;;;6.87;1.45;;;;;;;26.11;50.87;101765.36;1765008;81;21301;-68
2021/05/24 07:49:03;;;;;;;6.22;1.70;;;;;;;25.93;50.99;101766.56;1772686;81;21384;-72
2021/05/24 07:51:36;;;;;;;5.22;1.50;;;;;;;25.82;52.89;101765.77;1771831;81;21357;-70
2021/05/24 07:54:08;;;;;;;7.03;1.55;;;;;;;25.82;51.83;101769.47;1765664;81;21392;-68
2021/05/24 07:56:42;;;;;;;1.52;0.88;;;;;;;25.77;50.85;101770.20;1767656;81;21399;-67
2021/05/24 07:59:14;;;;;;;2.17;1.20;;;;;;;25.66;50.78;101761.78;1769287;81;21313;-71
2021/05/24 08:01:47;;;;;;;5.15;1.35;;;;;;;25.57;50.72;101773.73;1764192;81;21912;-68
2021/05/24 08:04:20;;;;;;;1.75;0.90;;;;;;;25.44;51.24;101774.73;1764009;81;21197;-68
2021/05/24 08:06:53;;;;;;;4.10;1.02;;;;;;;25.31;51.76;101777.97;1767098;81;21191;-71
2021/05/24 08:09:31;;;;;;;9.83;1.10;;;;;;;25.25;51.50;101780.75;1769279;81;21167;-68
2021/05/24 08:12:09;;;;;;;5.90;1.10;;;;;;;25.30;50.94;101781.98;1772613;81;21317;-67
2021/05/24 08:14:42;;;;;;;2.40;1.30;;;;;;;25.24;49.65;101778.23;1772751;81;21902;-69
2021/05/24 08:17:14;;;;;;;6.15;1.12;;;;;;;25.18;50.90;101786.03;1770449;81;21914;-68
2021/05/24 08:19:49;;;;;;;1.60;0.83;;;;;;;25.17;51.62;101790.05;1772537;81;21689;-70
2021/05/24 08:22:23;;;;;;;2.37;0.88;;;;;;;25.19;51.87;101785.47;1766209;81;21346;-68
2021/05/24 08:24:55;;;;;;;7.47;1.03;;;;;;;25.18;52.30;101780.95;1769076;81;21425;-73
2021/05/24 08:27:28;;;;;;;7.12;1.00;;;;;;;25.11;51.20;101777.77;1769044;81;21327;-70
2021/05/24 08:30:04;;;;;;;4.30;1.10;;;;;;;24.93;50.85;101788.84;1770478;81;21333;-69
2021/05/24 08:32:36;;;;;;;1.60;0.90;;;;;;;24.80;52.22;101789.80;1772138;81;21325;-69
2021/05/24 08:35:10;;;;;;;5.22;0.93;;;;;;;24.77;51.54;101789.87;1775898;81;21238;-70
2021/05/24 08:37:43;;;;;;;2.15;1.17;;;;;;;24.85;50.88;101791.89;1772090;81;21353;-69
2021/05/24 08:40:18;;;;;;;3.90;1.12;;;;;;;25.00;50.47;101792.03;1765843;81;21151;-74
2021/05/24 08:42:58;;;;;;;2.30;1.32;;;;;;;25.11;50.29;101797.06;1766866;80;21317;-73
2021/05/24 08:45:31;;;;;;;8.45;1.67;;;;;;;25.19;50.36;101802.53;1747488;81;21207;-75
2021/05/24 08:48:06;;;;;;;4.30;1.00;;;;;;;25.28;49.21;101811.94;1770075;81;21313;-71
2021/05/24 08:50:39;;;;;;;7.62;1.10;;;;;;;25.28;49.21;101811.94;1773348;81;21663;-73
2021/05/24 08:53:12;;;;;;;2.08;0.70;;;;;;;25.25;49.21;101810.63;1768890;81;21230;-70
2021/05/24 08:55:46;;;;;;;8.20;0.90;;;;;;;25.19;47.06;101803.95;1769109;81;21360;-70
2021/05/24 08:58:18;;;;;;;;;;;;;;;25.01;47.32;101817.86;1766402;81;21218;-69
2021/05/24 09:00:50;;;;;;;3.42;1.10;;;;;;;24.77;46.63;101818.29;1767042;81;20630;-72
2021/05/24 09:03:27;;;;;;;6.87;1.07;;;;;;;24.55;46.92;101819.72;1771337;81;21198;-71
2021/05/24 09:06:02;;;;;;;5.30;0.80;;;;;;;24.49;47.75;101820.17;1769687;81;21379;-69
2021/05/24 09:08:42;;;;;;;2.77;0.90;;;;;;;24.42;49.21;101824.92;1767306;81;21385;-69
2021/05/24 09:11:30;;;;;;;7.92;1.17;;;;;;;24.37;49.28;101819.38;1760668;81;21405;-68
2021/05/24 09:14:20;;;;;;;5.80;0.98;;;;;;;24.31;47.45;101814.99;1761589;81;21317;-68
2021/05/24 09:17:00;;;;;;;8.53;1.15;;;;;;;24.26;47.56;101819.38;1763957;81;21199;-70
2021/05/24 09:19:53;;;;;;;6.00;1.50;;;;;;;24.26;48.06;101817.14;1766461;81;21242;-76
2021/05/24 09:22:14;;;;;;;4.12;0.90;;;;;;;24.35;48.46;101832.22;1686768;83;21197;-71
2021/05/24 09:24:52;;;;;;;7.28;1.37;;;;;;;24.41;47.46;101823.81;1711968;83;21194;-75
2021/05/24 09:27:30;;;;;;;6.30;1.10;;;;;;;24.43;45.83;101822.33;1763675;81;21214;-69
2021/05/24 09:30:04;;;;;;;1.22;0.90;;;;;;;24.39;45.58;101818.45;1763837;81;21353;-70
2021/05/24 09:32:38;;;;;;;7.83;1.10;;;;;;;24.32;46.29;101830.05;1767656;81;21241;-71
2021/05/24 09:35:11;;;;;;;9.83;1.65;;;;;;;24.31;46.29;101826.95;1767559;81;21328;-71
2021/05/24 09:37:45;;;;;;;7.22;1.52;;;;;;;24.30;47.14;101818.15;1764521;81;21195;-75
2021/05/24 09:40:22;;;;;;;8.67;1.80;;;;;;;24.31;46.79;101826.35;1740465;81;21336;-73
2021/05/24 09:43:01;;;;;;;8.25;0.90;;;;;;;24.30;46.79;101833.20;1767632;81;21203;-69
2021/05/24 09:45:40;;;;;;;6.62;1.45;;;;;;;24.25;46.29;101836.77;1765148;80;21415;-74
2021/05/24 09:48:14;;;;;;;3.80;1.00;;;;;;;24.20;46.62;101839.13;1761985;80;21187;-74
2021/05/24 09:50:55;;;;;;;12.18;0.95;;;;;;;24.14;45.44;101835.34;1761687;81;21383;-69
2021/05/24 09:53:27;;;;;;;2.77;0.75;;;;;;;24.05;45.12;101837.27;1754949;81;21401;-79
2021/05/24 09:56:15;;;;;;;7.47;0.80;;;;;;;24.00;45.80;101843.06;1737415;82;21325;-77
2021/05/24 09:58:59;;;;;;;8.38;1.35;;;;;;;23.95;45.33;101848.89;1737199;82;21340;-75
2021/05/24 10:01:46;;;;;;;5.17;1.10;;;;;;;23.89;45.45;101840.25;1724762;81;21372;-71
2021/05/24 10:04:18;;;;;;;1.92;0.70;;;;;;;23.82;44.96;101835.53;1764543;81;21393;-76
2021/05/24 10:06:51;;;;;;;4.00;0.80;;;;;;;23.75;45.74;101836.56;1762311;81;21405;-73
2021/05/24 10:09:24;;;;;;;2.40;1.20;;;;;;;23.77;46.10;101837.10;1763263;81;21277;-77
2021/05/24 10:11:57;;;;;;;3.08;0.90;;;;;;;23.81;46.63;101854.58;1767713;81;21198;-74
2021/05/24 10:14:30;;;;;;;4.35;1.15;;;;;;;23.83;46.26;101823.05;1771181;81;21226;-70
2021/05/24 10:17:03;;;;;;;1.90;0.87;;;;;;;23.85;47.14;101840.59;1772209;81;21853;-71
2021/05/24 10:19:37;;;;;;;7.67;1.20;;;;;;;23.85;46.17;101830.09;1771164;81;21309;-73
2021/05/24 10:22:10;;;;;;;2.30;0.90;;;;;;;23.83;45.96;101833.80;1768903;81;21206;-75
2021/05/24 10:24:42;;;;;;;;;;;;;;;23.82;45.79;101830.71;1769542;81;21182;-70
2021/05/24 10:27:14;;;;;;;3.65;1.10;;;;;;;23.80;46.25;101833.05;1769890;81;20179;-71
2021/05/24 10:29:47;;;;;;;7.50;1.03;;;;;;;23.76;46.46;101826.89;1766088;79;21728;-70
2021/05/24 10:32:23;;;;;;;2.33;0.83;;;;;;;23.76;46.46;101826.89;1772087;81;21691;-76
2021/05/24 10:34:59;;;;;;;2.60;0.80;;;;;;;23.80;46.19;101821.69;1770248;81;21369;-67
2021/05/24 10:37:38;;;;;;;4.22;1.00;;;;;;;23.84;46.57;101821.88;1770679;81;21385;-71
2021/05/24 10:40:11;;;;;;;5.17;0.93;;;;;;;23.91;46.68;101823.72;1768480;81;21203;-77
2021/05/24 10:42:47;;;;;;;8.85;1.10;;;;;;;23.97;47.02;101820.45;1770861;81;21305;-69
2021/05/24 10:45:26;;;;;;;5.10;0.93;;;;;;;24.02;47.02;101828.81;1771972;81;21744;-70
2021/05/24 10:48:00;;;;;;;2.77;1.07;;;;;;;24.04;46.67;101830.77;1771034;80;21317;-74
2021/05/24 10:50:35;;;;;;;8.25;1.10;;;;;;;23.97;45.70;101822.44;1771233;81;21618;-74
2021/05/24 10:53:15;;;;;;;6.03;1.10;;;;;;;23.86;45.29;101825.23;1764579;81;21329;-68
2021/05/24 10:55:50;;;;;;;7.90;1.12;;;;;;;23.80;45.57;101820.84;1767404;80;21291;-69
2021/05/24 10:58:24;;;;;;;10.78;1.50;;;;;;;23.79;46.41;101826.27;1771268;81;21344;-70
2021/05/24 11:01:03;;;;;;;7.72;1.17;;;;;;;23.78;45.45;101830.27;1772154;81;21380;-67
2021/05/24 11:03:39;;;;;;;6.35;1.32;;;;;;;23.78;45.18;101832.50;1769343;81;21345;-72
2021/05/24 11:06:18;;;;;;;6.47;1.10;;;;;;;23.77;45.11;101834.27;1765667;81;21383;-71
2021/05/24 11:08:54;;;;;;;5.15;1.42;;;;;;;23.75;45.30;101844.51;1762343;80;21183;-70
2021/05/24 11:11:30;;;;;;;8.50;2.00;;;;;;;23.73;45.96;101845.98;1761844;80;21194;-72
2021/05/24 11:14:06;;;;;;;2.95;1.07;;;;;;;23.75;46.46;101859.27;1765323;81;21824;-68
2021/05/24 11:16:40;;;;;;;3.02;0.95;;;;;;;23.76;45.86;101850.44;1758071;81;21321;-70
2021/05/24 11:19:16;;;;;;;8.28;1.50;;;;;;;23.69;44.57;101856.28;1758652;81;21358;-73
2021/05/24 11:21:54;;;;;;;8.90;1.82;;;;;;;23.57;45.03;101846.92;1765655;81;21835;-70
2021/05/24 11:24:36;;;;;;;7.50;1.75;;;;;;;23.46;45.71;101853.16;1766578;81;21533;-71
2021/05/24 11:27:17;;;;;;;8.45;1.60;;;;;;;23.26;46.80;101857.84;1758422;81;21859;-68
2021/05/24 11:29:50;;;;;;;4.72;2.22;;;;;;;23.09;47.27;101857.60;1759176;81;21451;-68
2021/05/24 11:32:28;;;;;;;12.03;2.00;;;;;;;22.96;48.33;101861.28;1763244;81;21171;-70
2021/05/24 11:35:02;;;;;;;6.83;1.80;;;;;;;22.86;49.28;101861.51;1766722;81;21995;-68
2021/05/24 11:37:44;;;;;;;7.40;2.20;;;;;;;22.84;49.91;101847.64;1739720;81;21336;-71
2021/05/24 11:40:17;;;;;;;3.98;2.22;;;;;;;22.86;50.21;101863.75;1758434;81;21253;-69
2021/05/24 11:42:50;;;;;;;1.87;1.22;;;;;;;22.80;50.30;101868.42;1767119;81;21651;-72
2021/05/24 11:45:24;;;;;;;8.15;2.15;;;;;;;22.67;50.08;101860.75;1760689;81;21357;-72
2021/05/24 11:47:58;;;;;;;4.25;1.40;;;;;;;22.60;50.24;101856.05;1761519;81;21756;-75
2021/05/24 11:50:32;;;;;;;6.10;1.40;;;;;;;22.50;49.61;101859.91;1772278;80;21210;-75
2021/05/24 11:53:04;;;;;;;4.47;1.27;;;;;;;22.37;49.24;101869.78;1761724;81;21430;-68
2021/05/24 11:55:38;;;;;;;15.50;1.40;;;;;;;22.26;49.84;101874.75;1768845;81;21222;-70
2021/05/24 11:58:16;;;;;;;3.35;1.10;;;;;;;22.22;50.80;101887.87;1760109;81;21879;-69